Kissimmee Gateway Airport
KISM : now visible

Airfield :











YOU CAN JOIN US ON...

 
LOGIN :

Register | Disclaimer

   EN    FR    IT 

 









Legend :    VFR   Marginal VFR   IFR   Intensive IFR   Very Intensive IFR
Visi :
Ceiling :
>= 8 km
>= 3000ft
5 to 8 km
1000 to 3000 ft
1500m to 5 km
500 to 1000 ft
800 to 1500m
200 to 500 ft
< 800m
< 200 ft
Symbols :   Thunderstorms  Fog  Heavy snow  Heavy precipitations  Wind > 20 kt






- Airport Elevation : 82 ft


KISM - Kissimmee Gateway

CURRENT METAR :
  • 301556Z 21006KT 10SM CLR A3009 RMK AO2 SLPNO PNO $

EXPIRED METARs :
  • 301548Z 22006KT 10SM FEW002 A3009 RMK AO2 PNO $
  • 301528Z 21008KT 10SM SCT024 A3009 RMK AO2 PNO $
  • 301456Z 24008KT 10SM BKN020 A3009 RMK AO2 SLPNO 6//// 53009 PNO $
  • 301356Z 25006KT 10SM CLR 28/24 A3007 RMK AO2 SLP182 T02780239 PNO $

TAF KISM
Valid from the 30 at 12:00 until the 31 at 12:00 UTC


301123Z 3012/3112 22003KT P6SM FEW020 SCT250
FM301400 24006KT P6SM SCT025 BKN250
FM302000 25008KT P6SM VCTS SCT040CB BKN120
FM310000 VRB04KT P6SM FEW040 SCT250 AMD NOT SKED
KZMA FIR / North America



MET'MAP, your aeronautical weather chart ! - Copyright ORBIFLY December 2007 - Disclaimer

ORBIFLY MET'MAP TEAM :

Programming & Development : Alexandra Zaïnal
Concept & original design : Baudouin d'Aumeries
Assistance for programming : Marc-Olivier Méhu
Technical & hardware support : Manuel Goepfert

Contact : metmap@orbifly.com




SOURCES & CREDITS :

   NOAA       Earth
Advisory